Time;durP1;ratioP1;P1;durP2;ratioP2;P2;SDS_P1;SDS_P2;PMS_P1;PMS_P2;Temp;Humidity;BMP_temperature;BMP_pressure;BME280_temperature;BME280_humidity;BME280_pressure;Samples;Min_cycle;Max_cycle;Signal;HPM_P1;HPM_P2
2021/09/04 00:01:03;;;;;;;2.35;1.40;;;40.90;21.00;;;;;;5112176;27;20102;-62
2021/09/04 00:03:29;;;;;;;8.35;1.88;;;40.90;23.30;;;;;;5114754;27;20080;-59
2021/09/04 00:05:57;;;;;;;4.78;1.48;;;40.80;22.40;;;;;;5111269;27;20064;-57
2021/09/04 00:08:24;;;;;;;4.43;1.50;;;40.70;21.90;;;;;;5108428;27;20084;-57
2021/09/04 00:10:51;;;;;;;6.90;1.60;;;40.70;22.30;;;;;;5111299;27;20079;-54
2021/09/04 00:13:17;;;;;;;4.43;1.58;;;40.50;22.30;;;;;;5116840;27;20112;-54
2021/09/04 00:15:44;;;;;;;7.22;1.65;;;40.50;22.80;;;;;;5110988;27;20074;-55
2021/09/04 00:18:11;;;;;;;9.35;1.70;;;40.40;23.40;;;;;;5116452;27;20075;-58
2021/09/04 00:20:37;;;;;;;2.13;1.55;;;39.80;26.70;;;;;;5112041;27;20097;-55
2021/09/04 00:23:04;;;;;;;8.25;1.60;;;38.90;25.00;;;;;;5111717;27;20133;-56
2021/09/04 00:25:32;;;;;;;6.45;1.70;;;38.60;25.20;;;;;;5080453;27;20505;-54
2021/09/04 00:27:58;;;;;;;11.13;1.52;;;38.60;24.80;;;;;;5113562;27;20076;-53
2021/09/04 00:30:25;;;;;;;8.50;1.52;;;38.80;26.40;;;;;;5117800;27;20072;-54
2021/09/04 00:32:51;;;;;;;3.38;1.30;;;39.00;25.40;;;;;;5117752;27;20576;-53
2021/09/04 00:35:18;;;;;;;6.32;1.70;;;39.00;25.20;;;;;;5094513;28;20084;-56
2021/09/04 00:37:44;;;;;;;5.15;1.30;;;39.10;24.50;;;;;;5114104;27;20080;-54
2021/09/04 00:40:11;;;;;;;2.85;1.20;;;39.30;24.30;;;;;;5115131;27;20075;-51
2021/09/04 00:42:38;;;;;;;4.40;1.30;;;39.30;24.70;;;;;;5110480;27;20060;-53
2021/09/04 00:45:05;;;;;;;3.72;1.50;;;39.40;24.50;;;;;;5113563;27;20083;-56
2021/09/04 00:47:31;;;;;;;2.83;1.38;;;39.40;24.80;;;;;;5113454;27;20079;-51
2021/09/04 00:49:57;;;;;;;3.90;1.10;;;39.30;24.30;;;;;;5114752;27;20121;-52
2021/09/04 00:52:24;;;;;;;4.53;1.50;;;39.40;24.30;;;;;;5115368;27;20075;-56
2021/09/04 00:54:51;;;;;;;9.73;1.77;;;39.40;24.80;;;;;;5096363;28;20087;-56
2021/09/04 00:57:17;;;;;;;4.30;1.63;;;39.20;25.80;;;;;;5113938;27;20118;-54
2021/09/04 00:59:44;;;;;;;6.82;1.50;;;39.20;25.30;;;;;;5112755;27;20075;-55
2021/09/04 01:02:11;;;;;;;7.35;1.80;;;39.10;23.50;;;;;;5116170;27;20068;-57
2021/09/04 01:04:37;;;;;;;4.43;2.63;;;39.10;25.90;;;;;;5093707;28;20124;-57
2021/09/04 01:07:04;;;;;;;4.95;1.83;;;39.10;24.90;;;;;;5112078;27;20123;-55
2021/09/04 01:09:30;;;;;;;10.32;2.80;;;39.00;24.50;;;;;;5093233;28;20087;-55
2021/09/04 01:11:57;;;;;;;4.20;1.60;;;38.90;25.60;;;;;;5113731;27;20082;-51
2021/09/04 01:14:24;;;;;;;7.40;2.15;;;38.90;25.00;;;;;;5106143;27;20128;-54
2021/09/04 01:16:50;;;;;;;10.25;2.35;;;38.70;25.00;;;;;;5114571;27;20128;-49
2021/09/04 01:19:16;;;;;;;11.93;2.80;;;38.70;26.40;;;;;;5108523;27;20076;-50
2021/09/04 01:21:43;;;;;;;11.98;1.88;;;38.50;27.00;;;;;;5114447;27;20577;-51
2021/09/04 01:24:10;;;;;;;4.28;1.50;;;38.40;24.90;;;;;;5110610;27;20077;-50
2021/09/04 01:26:36;;;;;;;2.50;1.30;;;38.30;26.10;;;;;;5112872;28;20075;-54
2021/09/04 01:29:04;;;;;;;2.80;1.42;;;38.20;27.00;;;;;;5114536;27;20105;-49
2021/09/04 01:31:30;;;;;;;4.53;1.50;;;38.00;25.70;;;;;;5098609;28;20095;-51
2021/09/04 01:33:57;;;;;;;3.97;1.67;;;37.90;29.00;;;;;;5113184;28;20120;-52
2021/09/04 01:36:33;;;;;;;10.02;1.83;;;37.80;27.40;;;;;;5114605;28;20079;-53
2021/09/04 01:39:01;;;;;;;23.20;2.65;;;37.80;27.00;;;;;;5112294;28;20078;-51
2021/09/04 01:41:28;;;;;;;11.15;1.98;;;37.70;27.60;;;;;;5110754;28;20084;-56
2021/09/04 01:43:55;;;;;;;11.25;1.90;;;37.60;27.20;;;;;;5115398;28;20083;-56
2021/09/04 01:46:22;;;;;;;18.83;2.08;;;37.50;28.50;;;;;;5110928;28;20084;-52
2021/09/04 01:48:48;;;;;;;9.85;1.98;;;37.40;27.60;;;;;;5114866;28;20425;-53
2021/09/04 01:51:15;;;;;;;9.15;1.90;;;37.30;27.60;;;;;;5111574;28;20093;-54
2021/09/04 01:53:42;;;;;;;10.10;1.67;;;37.30;27.20;;;;;;5110691;28;20104;-56
2021/09/04 01:56:10;;;;;;;2.38;1.40;;;37.20;27.10;;;;;;5114488;28;20065;-52
2021/09/04 01:58:37;;;;;;;16.70;2.10;;;37.20;27.20;;;;;;5114892;28;20080;-48
2021/09/04 02:01:04;;;;;;;8.60;2.08;;;37.10;27.10;;;;;;5111313;28;20080;-51
2021/09/04 02:03:31;;;;;;;6.78;1.92;;;37.00;26.90;;;;;;5111023;28;20214;-55
2021/09/04 02:05:57;;;;;;;9.48;1.80;;;37.00;27.20;;;;;;5115151;28;20076;-54
2021/09/04 02:08:24;;;;;;;9.45;1.60;;;36.90;28.00;;;;;;5115847;28;20092;-55
2021/09/04 02:10:50;;;;;;;10.82;1.90;;;36.80;27.70;;;;;;5108157;28;20073;-52
2021/09/04 02:13:17;;;;;;;6.90;2.28;;;36.70;27.70;;;;;;5115532;28;20096;-54
2021/09/04 02:15:43;;;;;;;5.72;2.00;;;36.60;27.70;;;;;;5115598;28;20089;-55
2021/09/04 02:18:10;;;;;;;9.05;2.90;;;36.50;27.80;;;;;;5113513;28;20438;-54
2021/09/04 02:20:36;;;;;;;9.98;4.47;;;36.40;28.40;;;;;;5118747;28;20084;-55
2021/09/04 02:23:03;;;;;;;8.95;5.20;;;36.30;28.30;;;;;;5110999;28;20076;-53
2021/09/04 02:25:29;;;;;;;11.05;6.05;;;36.20;28.20;;;;;;5115449;28;20079;-56
2021/09/04 02:27:56;;;;;;;8.75;4.80;;;36.10;28.20;;;;;;5116164;28;20072;-51
2021/09/04 02:30:23;;;;;;;13.90;3.63;;;36.10;28.50;;;;;;5112067;28;20083;-55
2021/09/04 02:32:50;;;;;;;9.48;3.25;;;36.00;28.40;;;;;;5109832;28;20105;-56
2021/09/04 02:35:16;;;;;;;17.13;3.80;;;35.90;28.40;;;;;;5117589;28;20084;-54
2021/09/04 02:37:43;;;;;;;23.17;3.47;;;35.90;28.40;;;;;;5117232;28;20064;-55
2021/09/04 02:40:09;;;;;;;11.25;3.92;;;35.80;28.50;;;;;;5112216;28;20076;-53
2021/09/04 02:42:36;;;;;;;15.35;4.28;;;35.70;28.50;;;;;;5114787;27;20072;-51
2021/09/04 02:45:03;;;;;;;20.00;4.00;;;35.70;28.60;;;;;;5098955;27;20080;-55
2021/09/04 02:47:34;;;;;;;14.52;3.60;;;35.60;28.80;;;;;;5119136;27;20083;-56
2021/09/04 02:50:00;;;;;;;15.00;3.67;;;35.50;28.40;;;;;;5118283;27;20103;-57
2021/09/04 02:52:27;;;;;;;13.63;4.20;;;35.50;28.60;;;;;;5118013;27;20155;-53
2021/09/04 02:54:53;;;;;;;15.60;3.80;;;35.50;28.80;;;;;;5120589;27;20165;-56
2021/09/04 02:57:20;;;;;;;17.35;3.80;;;35.40;28.70;;;;;;5119401;27;20067;-57
2021/09/04 02:59:50;;;;;;;15.18;3.75;;;35.40;29.30;;;;;;5117328;27;20096;-56
2021/09/04 03:02:16;;;;;;;10.75;4.28;;;35.30;29.30;;;;;;5119710;27;20544;-53
2021/09/04 03:04:46;;;;;;;21.77;4.68;;;35.20;29.50;;;;;;5119530;27;20144;-54
2021/09/04 03:07:12;;;;;;;14.35;3.90;;;35.20;29.90;;;;;;5121570;27;20544;-56
2021/09/04 03:09:39;;;;;;;13.50;4.60;;;35.10;30.30;;;;;;5133922;27;20111;-58
2021/09/04 03:12:06;;;;;;;16.70;4.57;;;35.00;30.60;;;;;;5113651;27;20076;-54
2021/09/04 03:14:32;;;;;;;14.43;4.28;;;34.90;31.30;;;;;;5119135;27;20182;-54
2021/09/04 03:16:59;;;;;;;19.70;5.45;;;34.80;30.80;;;;;;5097250;28;20463;-54
2021/09/04 03:19:25;;;;;;;20.02;5.65;;;34.80;30.90;;;;;;5120267;27;20167;-55
2021/09/04 03:21:52;;;;;;;26.75;7.72;;;34.80;30.80;;;;;;5117939;27;20072;-56
2021/09/04 03:24:18;;;;;;;22.40;7.68;;;34.70;30.60;;;;;;5093243;28;20162;-52
2021/09/04 03:26:44;;;;;;;18.85;6.55;;;34.60;30.90;;;;;;5102117;27;20129;-54
2021/09/04 03:29:11;;;;;;;22.50;8.10;;;34.60;31.10;;;;;;5116782;27;20076;-51
2021/09/04 03:31:37;;;;;;;23.88;11.18;;;34.50;31.30;;;;;;5117870;27;20417;-52
2021/09/04 03:34:04;;;;;;;27.92;9.57;;;34.50;31.90;;;;;;5118419;27;20492;-54
2021/09/04 03:36:30;;;;;;;30.98;9.10;;;34.40;31.90;;;;;;5121167;27;20072;-55
2021/09/04 03:38:57;;;;;;;34.50;8.98;;;34.30;32.70;;;;;;5116832;27;20076;-54
2021/09/04 03:41:23;;;;;;;22.75;9.43;;;34.30;33.20;;;;;;5115830;27;20171;-53
2021/09/04 03:43:50;;;;;;;28.20;11.60;;;34.30;33.30;;;;;;5117921;27;20082;-55
2021/09/04 03:46:17;;;;;;;30.67;12.57;;;34.20;33.30;;;;;;5117987;27;20420;-54
2021/09/04 03:48:43;;;;;;;27.48;11.52;;;34.10;33.40;;;;;;5098729;27;20076;-52
2021/09/04 03:51:11;;;;;;;35.05;12.25;;;34.10;34.20;;;;;;5119513;27;20075;-51
2021/09/04 03:53:38;;;;;;;29.77;10.27;;;34.00;34.10;;;;;;5113699;27;20471;-55
2021/09/04 03:56:04;;;;;;;23.42;9.73;;;34.00;33.80;;;;;;5119071;27;20521;-56
2021/09/04 03:58:31;;;;;;;27.50;10.02;;;33.90;34.30;;;;;;5115291;27;20076;-56
2021/09/04 04:00:57;;;;;;;44.10;12.05;;;33.90;34.00;;;;;;5117272;27;20064;-54
2021/09/04 04:03:24;;;;;;;29.45;11.05;;;33.90;34.50;;;;;;5118949;27;20076;-56
2021/09/04 04:05:50;;;;;;;33.28;11.82;;;33.80;34.10;;;;;;5096952;27;20075;-55
2021/09/04 04:08:17;;;;;;;34.95;10.55;;;33.80;35.00;;;;;;5117097;27;20132;-55
2021/09/04 04:10:43;;;;;;;28.45;10.93;;;33.70;35.20;;;;;;5115669;27;20068;-55
2021/09/04 04:13:10;;;;;;;33.58;11.40;;;33.70;35.60;;;;;;5110580;27;20228;-55
2021/09/04 04:15:36;;;;;;;39.30;12.30;;;33.70;34.80;;;;;;5112922;27;20115;-55
2021/09/04 04:18:03;;;;;;;33.22;12.52;;;33.60;35.00;;;;;;5113100;27;20079;-55
2021/09/04 04:20:29;;;;;;;23.80;11.73;;;33.60;35.90;;;;;;5121002;27;20078;-54
2021/09/04 04:22:56;;;;;;;32.53;12.18;;;33.60;35.90;;;;;;5119261;27;20074;-53
2021/09/04 04:25:22;;;;;;;30.35;12.27;;;33.50;36.20;;;;;;5119337;27;22509;-54
2021/09/04 04:27:49;;;;;;;31.90;13.00;;;33.50;36.40;;;;;;5118000;27;20084;-54
2021/09/04 04:30:15;;;;;;;35.22;13.02;;;33.40;36.90;;;;;;5116320;27;20072;-51
2021/09/04 04:32:42;;;;;;;31.35;12.10;;;33.40;37.00;;;;;;5118569;27;20124;-53
2021/09/04 04:35:09;;;;;;;28.35;11.38;;;33.40;36.90;;;;;;5099973;28;20547;-54
2021/09/04 04:37:36;;;;;;;38.55;11.73;;;33.30;36.90;;;;;;5117956;27;20076;-55
2021/09/04 04:40:03;;;;;;;35.63;11.55;;;33.30;37.00;;;;;;5114118;27;20084;-54
2021/09/04 04:42:29;;;;;;;32.35;11.43;;;33.20;37.60;;;;;;5115964;27;20073;-55
2021/09/04 04:44:56;;;;;;;31.17;10.90;;;33.20;37.60;;;;;;5117053;27;20089;-56
2021/09/04 04:47:22;;;;;;;30.42;11.30;;;33.10;37.60;;;;;;5119032;27;20501;-57
2021/09/04 04:49:48;;;;;;;32.97;11.15;;;33.10;37.60;;;;;;5114603;27;20099;-52
2021/09/04 04:52:15;;;;;;;32.67;10.48;;;33.00;37.50;;;;;;5119264;27;20088;-51
2021/09/04 04:54:41;;;;;;;36.72;10.63;;;33.00;37.40;;;;;;5116963;27;20129;-55
2021/09/04 04:57:08;;;;;;;33.95;10.40;;;32.90;38.00;;;;;;5114570;27;20076;-51
2021/09/04 04:59:35;;;;;;;48.22;11.43;;;32.90;37.90;;;;;;5117286;27;20088;-51
2021/09/04 05:02:01;;;;;;;35.88;11.40;;;32.90;38.00;;;;;;5118705;27;20129;-57
2021/09/04 05:04:28;;;;;;;28.83;10.73;;;32.80;37.80;;;;;;5109680;27;20393;-56
2021/09/04 05:06:54;;;;;;;28.17;10.57;;;32.80;38.50;;;;;;5112641;27;20444;-54
2021/09/04 05:09:21;;;;;;;33.05;11.00;;;32.70;39.10;;;;;;5118278;27;20084;-51
2021/09/04 05:11:48;;;;;;;42.00;10.95;;;32.60;40.20;;;;;;5115141;27;20069;-51
2021/09/04 05:14:14;;;;;;;27.27;10.90;;;32.50;39.60;;;;;;5114578;27;20096;-54
2021/09/04 05:16:41;;;;;;;31.65;10.75;;;32.50;39.80;;;;;;5118420;27;20084;-53
2021/09/04 05:19:07;;;;;;;32.92;10.00;;;32.40;40.80;;;;;;5118207;27;20072;-52
2021/09/04 05:21:34;;;;;;;33.55;11.05;;;32.40;40.00;;;;;;5113668;27;20072;-53
2021/09/04 05:24:00;;;;;;;30.67;11.48;;;32.30;40.10;;;;;;5115563;27;20080;-53
2021/09/04 05:26:27;;;;;;;35.72;11.60;;;32.20;40.30;;;;;;5115245;27;20086;-55
2021/09/04 05:28:54;;;;;;;42.58;11.55;;;32.20;40.50;;;;;;5114264;27;20136;-52
2021/09/04 05:31:20;;;;;;;42.88;12.82;;;32.20;40.20;;;;;;5097955;27;20076;-53
2021/09/04 05:33:47;;;;;;;32.05;12.43;;;32.20;40.00;;;;;;5116617;27;20119;-54
2021/09/04 05:36:13;;;;;;;38.10;12.57;;;32.20;39.60;;;;;;5118462;28;20069;-55
2021/09/04 05:38:39;;;;;;;53.75;13.52;;;32.00;39.40;;;;;;5095829;28;20100;-52
2021/09/04 05:41:08;;;;;;;29.88;7.65;;;32.00;38.50;;;;;;5115669;28;20076;-52
2021/09/04 05:43:35;;;;;;;34.53;7.25;;;32.30;32.50;;;;;;5114799;28;20155;-57
2021/09/04 05:46:02;;;;;;;31.42;5.80;;;32.50;31.80;;;;;;5112333;28;20100;-53
2021/09/04 05:48:28;;;;;;;30.10;5.50;;;32.70;30.30;;;;;;5114530;28;20079;-54
2021/09/04 05:50:55;;;;;;;20.80;4.22;;;32.90;30.20;;;;;;5115621;28;20524;-55
2021/09/04 05:53:21;;;;;;;17.38;3.90;;;33.00;29.30;;;;;;5100923;28;20122;-57
2021/09/04 05:55:48;;;;;;;17.15;3.55;;;33.00;29.50;;;;;;5114990;28;20107;-55
2021/09/04 05:58:14;;;;;;;15.70;6.38;;;33.10;29.60;;;;;;5110197;28;20072;-54
2021/09/04 06:00:41;;;;;;;13.60;7.85;;;33.10;29.50;;;;;;5112208;28;20128;-58
2021/09/04 06:03:08;;;;;;;11.50;3.75;;;33.10;29.60;;;;;;5117060;28;20139;-55
2021/09/04 06:05:35;;;;;;;6.70;2.97;;;33.10;29.40;;;;;;5115957;28;20108;-57
2021/09/04 06:08:02;;;;;;;5.13;2.60;;;33.10;29.60;;;;;;5114544;28;20087;-55
2021/09/04 06:10:29;;;;;;;10.70;2.83;;;33.10;29.90;;;;;;5111960;28;20112;-55
2021/09/04 06:12:55;;;;;;;6.93;2.85;;;33.10;29.50;;;;;;5116483;28;20078;-54
2021/09/04 06:15:22;;;;;;;9.63;4.45;;;33.10;29.40;;;;;;5115940;27;20072;-56
2021/09/04 06:17:48;;;;;;;10.05;2.88;;;33.10;29.80;;;;;;5114932;27;20129;-51
2021/09/04 06:20:15;;;;;;;8.38;2.85;;;33.00;30.00;;;;;;5120400;27;20091;-54
2021/09/04 06:22:41;;;;;;;12.88;2.78;;;33.00;29.70;;;;;;5115430;27;20059;-54
2021/09/04 06:25:08;;;;;;;4.25;2.33;;;33.00;30.10;;;;;;5116567;27;20212;-56
2021/09/04 06:27:35;;;;;;;3.83;2.38;;;32.90;31.00;;;;;;5115241;27;20076;-54
2021/09/04 06:30:03;;;;;;;4.40;1.85;;;32.80;31.00;;;;;;5096681;27;20080;-54
2021/09/04 06:32:30;;;;;;;10.25;2.30;;;32.70;31.80;;;;;;5117586;27;20072;-55
2021/09/04 06:34:56;;;;;;;5.78;1.90;;;32.70;32.30;;;;;;5112595;27;20143;-51
2021/09/04 06:37:23;;;;;;;7.30;2.22;;;32.60;33.10;;;;;;5119471;27;20072;-54
2021/09/04 06:39:50;;;;;;;8.05;2.33;;;32.50;33.60;;;;;;5117941;27;20074;-53
2021/09/04 06:42:17;;;;;;;8.52;2.50;;;32.30;34.40;;;;;;5119869;27;20114;-57
2021/09/04 06:44:43;;;;;;;6.95;2.60;;;32.30;34.30;;;;;;5116455;27;20134;-55
2021/09/04 06:47:10;;;;;;;8.30;2.92;;;32.20;34.70;;;;;;5115597;27;20069;-56
2021/09/04 06:49:36;;;;;;;7.88;3.13;;;32.10;35.30;;;;;;5114942;27;20072;-57
2021/09/04 06:52:03;;;;;;;9.82;3.10;;;32.00;35.80;;;;;;5116770;27;21300;-55
2021/09/04 06:54:29;;;;;;;12.57;3.67;;;32.00;36.30;;;;;;5112793;27;20096;-54
2021/09/04 06:56:56;;;;;;;12.02;3.08;;;31.90;36.70;;;;;;5119459;27;20083;-51
2021/09/04 06:59:22;;;;;;;11.00;3.90;;;31.80;37.30;;;;;;5114124;27;20115;-53
2021/09/04 07:01:51;;;;;;;11.68;3.75;;;31.80;36.70;;;;;;5120118;27;20076;-55
2021/09/04 07:04:18;;;;;;;6.68;2.97;;;31.70;36.30;;;;;;5117289;27;20081;-49
2021/09/04 07:06:44;;;;;;;7.50;3.35;;;31.70;36.30;;;;;;5114614;27;20171;-49
2021/09/04 07:09:11;;;;;;;10.73;4.20;;;31.60;37.00;;;;;;5117377;27;20088;-52
2021/09/04 07:11:37;;;;;;;11.40;3.28;;;31.60;34.90;;;;;;5117646;27;20162;-52
2021/09/04 07:14:04;;;;;;;12.27;3.83;;;31.60;33.70;;;;;;5114937;27;20100;-55
2021/09/04 07:16:31;;;;;;;13.70;3.45;;;31.70;33.90;;;;;;5116324;27;20204;-55
2021/09/04 07:18:57;;;;;;;13.63;3.38;;;31.70;33.40;;;;;;5114578;27;20459;-56
2021/09/04 07:21:24;;;;;;;12.55;3.63;;;31.70;32.70;;;;;;5113340;27;20076;-56
2021/09/04 07:23:50;;;;;;;10.68;3.65;;;31.70;33.60;;;;;;5113283;27;20075;-57
2021/09/04 07:26:17;;;;;;;16.00;3.80;;;31.60;33.50;;;;;;5119468;27;20505;-50
2021/09/04 07:28:43;;;;;;;15.35;3.33;;;31.60;32.40;;;;;;5115240;27;20171;-54
2021/09/04 07:31:10;;;;;;;11.05;4.13;;;31.60;32.30;;;;;;5114165;27;20079;-55
2021/09/04 07:33:36;;;;;;;12.70;3.83;;;31.60;33.00;;;;;;5116099;27;20111;-55
2021/09/04 07:36:08;;;;;;;15.23;4.07;;;31.60;32.00;;;;;;5117471;27;20080;-55
2021/09/04 07:38:35;;;;;;;12.68;3.92;;;31.60;32.70;;;;;;5113535;27;20091;-56
2021/09/04 07:41:02;;;;;;;10.63;3.90;;;31.60;31.80;;;;;;5112564;27;20436;-52
2021/09/04 07:43:28;;;;;;;11.77;3.53;;;31.50;32.50;;;;;;5114441;27;20068;-56
2021/09/04 07:45:55;;;;;;;7.78;3.13;;;31.60;32.40;;;;;;5115157;27;20071;-54
2021/09/04 07:48:21;;;;;;;9.82;3.67;;;31.50;33.00;;;;;;5116594;27;20076;-54
2021/09/04 07:50:48;;;;;;;9.27;2.88;;;31.50;32.80;;;;;;5115968;27;20533;-57
2021/09/04 07:53:14;;;;;;;8.70;3.28;;;31.50;33.00;;;;;;5117879;27;20092;-56
2021/09/04 07:55:41;;;;;;;10.35;3.20;;;31.40;32.50;;;;;;5114903;27;20152;-53
2021/09/04 07:58:07;;;;;;;10.73;3.67;;;31.30;32.20;;;;;;5116776;27;20075;-56
2021/09/04 08:00:34;;;;;;;7.97;3.45;;;31.30;32.00;;;;;;5116551;27;20118;-55
2021/09/04 08:03:00;;;;;;;7.88;3.50;;;31.30;31.10;;;;;;5118453;27;20079;-54
2021/09/04 08:05:27;;;;;;;10.65;3.60;;;31.30;30.90;;;;;;5116762;27;20103;-55
2021/09/04 08:07:53;;;;;;;9.02;3.38;;;31.30;31.50;;;;;;5115850;27;20080;-53
2021/09/04 08:10:20;;;;;;;10.60;3.80;;;31.30;32.00;;;;;;5117796;27;20532;-51
2021/09/04 08:12:46;;;;;;;7.25;3.78;;;31.20;31.70;;;;;;5119828;27;20151;-52
2021/09/04 08:15:13;;;;;;;16.65;3.55;;;31.20;31.30;;;;;;5116739;27;20084;-50
2021/09/04 08:17:39;;;;;;;6.40;2.95;;;31.20;30.90;;;;;;5115379;27;20075;-55
2021/09/04 08:20:07;;;;;;;6.82;2.92;;;31.10;30.90;;;;;;5120561;27;20080;-54
2021/09/04 08:22:33;;;;;;;10.15;3.42;;;31.10;30.40;;;;;;5118181;27;20495;-51
2021/09/04 08:25:00;;;;;;;7.93;3.13;;;31.10;31.00;;;;;;5113712;27;20087;-55
2021/09/04 08:27:26;;;;;;;5.78;3.00;;;31.00;31.10;;;;;;5116542;27;20080;-55
2021/09/04 08:29:53;;;;;;;8.00;2.70;;;31.10;28.60;;;;;;5112480;27;20072;-56
2021/09/04 08:32:20;;;;;;;6.70;2.95;;;31.20;28.80;;;;;;5115815;27;20432;-52
2021/09/04 08:34:46;;;;;;;9.75;3.00;;;31.20;29.00;;;;;;5114886;27;20126;-56
2021/09/04 08:37:13;;;;;;;8.07;3.00;;;31.30;28.40;;;;;;5114349;27;20112;-52
2021/09/04 08:39:39;;;;;;;9.27;2.95;;;31.30;28.50;;;;;;5117046;27;20068;-51
2021/09/04 08:42:06;;;;;;;9.43;2.90;;;31.30;28.60;;;;;;5111003;27;20080;-52
2021/09/04 08:44:33;;;;;;;7.07;2.78;;;31.30;29.50;;;;;;5113743;27;20574;-52
2021/09/04 08:47:00;;;;;;;8.93;2.97;;;31.30;29.40;;;;;;5115270;27;20064;-54
2021/09/04 08:49:27;;;;;;;10.70;3.15;;;31.20;29.80;;;;;;5113469;27;20079;-51
2021/09/04 08:51:54;;;;;;;7.75;3.10;;;31.10;30.00;;;;;;5093827;28;20220;-52
2021/09/04 08:54:21;;;;;;;12.63;3.20;;;31.10;30.50;;;;;;5111081;27;20099;-50
2021/09/04 08:56:47;;;;;;;10.50;3.00;;;31.00;30.90;;;;;;5113773;27;20155;-52
2021/09/04 08:59:14;;;;;;;7.10;3.15;;;31.00;29.90;;;;;;5118261;27;20083;-50
2021/09/04 09:01:45;;;;;;;11.60;2.83;;;31.00;30.60;;;;;;5116288;27;20159;-53
2021/09/04 09:04:18;;;;;;;5.60;2.50;;;30.90;30.70;;;;;;5114679;27;20124;-50
2021/09/04 09:06:46;;;;;;;10.05;3.05;;;30.90;30.20;;;;;;5112302;27;20088;-55
2021/09/04 09:09:22;;;;;;;9.73;2.75;;;30.90;29.40;;;;;;5112242;27;20072;-53
2021/09/04 09:11:51;;;;;;;7.40;2.38;;;31.10;28.10;;;;;;5116694;27;20082;-49
2021/09/04 09:14:19;;;;;;;8.18;2.30;;;31.20;27.70;;;;;;5110652;27;20100;-50
2021/09/04 09:17:01;;;;;;;3.42;2.05;;;31.20;27.30;;;;;;5115557;27;20076;-50
2021/09/04 09:19:37;;;;;;;7.20;2.30;;;31.50;26.90;;;;;;5114429;27;20075;-51
2021/09/04 09:22:15;;;;;;;8.90;2.50;;;31.60;26.30;;;;;;5114256;27;20068;-52
2021/09/04 09:24:43;;;;;;;7.38;2.25;;;31.60;26.30;;;;;;5113736;27;20072;-51
2021/09/04 09:27:15;;;;;;;3.92;2.10;;;31.70;26.40;;;;;;5114434;27;20164;-51
2021/09/04 09:29:51;;;;;;;8.05;2.58;;;31.70;26.40;;;;;;5111750;28;20076;-54
2021/09/04 09:32:17;;;;;;;7.45;2.67;;;31.70;26.40;;;;;;5113690;27;20421;-51
2021/09/04 09:34:48;;;;;;;5.90;2.13;;;31.70;26.40;;;;;;5117295;27;20107;-53
2021/09/04 09:37:15;;;;;;;5.35;2.58;;;31.70;26.80;;;;;;5110663;28;20072;-51
2021/09/04 09:39:45;;;;;;;6.82;2.70;;;31.70;26.60;;;;;;5115659;28;20072;-51
2021/09/04 09:42:13;;;;;;;6.82;2.35;;;31.80;27.00;;;;;;5113798;28;20196;-51
2021/09/04 09:44:42;;;;;;;5.47;2.72;;;31.70;27.20;;;;;;5117139;28;20107;-51
2021/09/04 09:47:11;;;;;;;6.25;2.47;;;31.70;26.70;;;;;;5114860;28;20141;-53
2021/09/04 09:49:40;;;;;;;8.40;2.35;;;31.60;27.10;;;;;;5113921;27;20083;-53
2021/09/04 09:52:17;;;;;;;4.90;2.40;;;31.70;27.00;;;;;;5116460;27;20106;-53
2021/09/04 09:54:48;;;;;;;5.72;2.30;;;31.70;26.80;;;;;;5114969;27;20106;-49
2021/09/04 09:57:15;;;;;;;5.93;2.45;;;31.70;26.70;;;;;;5115637;27;20064;-49
2021/09/04 09:59:46;;;;;;;8.05;2.58;;;31.70;26.90;;;;;;5120579;27;20082;-49
2021/09/04 10:02:16;;;;;;;8.20;2.97;;;31.60;26.60;;;;;;5118249;27;20068;-49
2021/09/04 10:04:47;;;;;;;10.55;3.33;;;31.60;26.60;;;;;;5117650;27;20068;-52
2021/09/04 10:07:13;;;;;;;7.32;2.25;;;31.50;27.10;;;;;;5117496;27;20103;-49
2021/09/04 10:09:40;;;;;;;9.18;2.53;;;31.50;26.50;;;;;;5118732;27;20435;-53
2021/09/04 10:12:10;;;;;;;10.73;2.63;;;31.50;26.40;;;;;;5114212;27;20108;-50
2021/09/04 10:14:37;;;;;;;5.93;2.15;;;31.50;27.10;;;;;;5116387;27;20558;-49
2021/09/04 10:17:06;;;;;;;9.00;2.60;;;31.50;26.60;;;;;;5114329;27;20075;-56
2021/09/04 10:19:34;;;;;;;10.70;2.10;;;31.50;27.30;;;;;;5118433;27;20079;-54
2021/09/04 10:22:06;;;;;;;11.38;2.70;;;31.40;26.70;;;;;;5120621;27;20605;-55
2021/09/04 10:24:49;;;;;;;5.43;2.42;;;31.40;25.80;;;;;;5118140;27;20099;-55
2021/09/04 10:27:35;;;;;;;8.52;2.30;;;31.40;25.90;;;;;;5115852;27;20133;-54
2021/09/04 10:30:33;;;;;;;8.00;2.13;;;31.50;25.20;;;;;;5116939;27;20079;-56
2021/09/04 10:33:02;;;;;;;8.50;2.50;;;31.50;25.10;;;;;;5116758;27;20099;-54
2021/09/04 10:35:43;;;;;;;4.97;1.58;;;31.60;24.90;;;;;;5116162;27;20613;-55
2021/09/04 10:38:18;;;;;;;11.73;2.70;;;31.60;25.00;;;;;;5114364;27;20072;-52
2021/09/04 10:40:51;;;;;;;3.10;1.67;;;31.50;25.00;;;;;;5115109;27;20076;-55
2021/09/04 10:43:20;;;;;;;8.80;2.05;;;31.50;25.20;;;;;;5114937;27;20129;-54
2021/09/04 10:45:51;;;;;;;5.65;1.95;;;31.50;25.20;;;;;;5115090;27;20080;-56
2021/09/04 10:48:22;;;;;;;6.50;1.88;;;31.50;25.00;;;;;;5113882;27;20069;-55
2021/09/04 10:51:10;;;;;;;4.30;1.70;;;31.50;25.10;;;;;;5115945;27;20072;-54
2021/09/04 10:53:50;;;;;;;4.05;1.42;;;31.40;25.00;;;;;;5113313;27;20193;-54
2021/09/04 10:56:31;;;;;;;6.60;2.17;;;31.40;25.00;;;;;;5114365;27;20075;-55
2021/09/04 10:58:58;;;;;;;4.95;1.60;;;31.40;25.20;;;;;;5097429;27;20155;-56
2021/09/04 11:01:33;;;;;;;13.98;2.55;;;31.30;25.10;;;;;;5116814;27;20692;-55
2021/09/04 11:03:59;;;;;;;4.32;1.90;;;31.30;25.70;;;;;;5113905;27;20075;-56
2021/09/04 11:06:27;;;;;;;4.78;2.03;;;31.30;25.90;;;;;;5118100;27;20525;-55
2021/09/04 11:08:54;;;;;;;5.22;1.90;;;31.20;26.90;;;;;;5096893;27;20597;-53
2021/09/04 11:11:38;;;;;;;4.60;1.73;;;31.10;26.50;;;;;;5111949;27;20106;-55
2021/09/04 11:14:22;;;;;;;8.23;2.20;;;31.00;26.80;;;;;;5114055;27;20103;-54
2021/09/04 11:16:53;;;;;;;2.65;1.70;;;30.90;27.60;;;;;;5115839;27;20091;-52
2021/09/04 11:19:23;;;;;;;3.45;1.70;;;30.80;27.60;;;;;;5113627;27;20118;-55
2021/09/04 11:22:10;;;;;;;7.93;2.00;;;30.80;28.50;;;;;;5113558;27;20091;-56
2021/09/04 11:24:46;;;;;;;4.90;1.90;;;30.70;28.20;;;;;;5115889;27;20075;-50
2021/09/04 11:27:19;;;;;;;5.70;2.00;;;30.60;28.40;;;;;;5115476;27;20076;-49
2021/09/04 11:29:54;;;;;;;6.32;2.05;;;30.60;28.60;;;;;;5115723;27;20129;-55
2021/09/04 11:32:29;;;;;;;7.63;2.10;;;30.50;28.50;;;;;;5117384;27;20095;-50
2021/09/04 11:35:00;;;;;;;5.07;1.83;;;30.50;28.80;;;;;;5114328;27;20100;-53
2021/09/04 11:37:32;;;;;;;4.68;1.80;;;30.40;28.80;;;;;;5114714;27;20301;-52
2021/09/04 11:40:00;;;;;;;6.93;2.05;;;30.40;28.70;;;;;;5115035;27;20076;-54
2021/09/04 11:42:29;;;;;;;7.50;2.22;;;30.30;28.70;;;;;;5118825;27;20080;-54
2021/09/04 11:44:59;;;;;;;8.80;2.40;;;30.30;29.00;;;;;;5114817;27;20103;-53
2021/09/04 11:47:27;;;;;;;8.15;2.08;;;30.20;29.10;;;;;;5112749;27;20080;-50
2021/09/04 11:49:58;;;;;;;9.75;2.50;;;30.20;29.30;;;;;;5114320;27;20076;-55
2021/09/04 11:52:39;;;;;;;15.80;2.45;;;30.10;29.30;;;;;;5115008;27;20111;-52
2021/09/04 11:55:20;;;;;;;7.15;2.50;;;30.00;29.80;;;;;;5114328;27;20108;-52
2021/09/04 11:57:56;;;;;;;12.32;2.17;;;29.90;30.10;;;;;;5115783;27;20079;-52
2021/09/04 12:00:42;;;;;;;6.70;2.10;;;29.90;30.00;;;;;;5115451;27;20068;-50
2021/09/04 12:03:10;;;;;;;6.85;2.50;;;29.90;29.80;;;;;;5112752;27;20083;-50
2021/09/04 12:05:43;;;;;;;6.35;2.63;;;29.80;30.00;;;;;;5113601;27;20107;-51
2021/09/04 12:08:15;;;;;;;9.23;2.35;;;29.80;30.90;;;;;;5112125;27;20077;-54
2021/09/04 12:10:45;;;;;;;8.65;2.33;;;29.70;30.10;;;;;;5111421;27;20113;-52
2021/09/04 12:13:18;;;;;;;8.18;2.90;;;29.70;30.80;;;;;;5113148;27;21698;-50
2021/09/04 12:15:45;;;;;;;6.13;2.20;;;29.60;30.10;;;;;;5117375;27;20532;-54
2021/09/04 12:18:12;;;;;;;7.72;2.22;;;29.60;30.00;;;;;;5113115;27;20155;-53
2021/09/04 12:20:40;;;;;;;10.07;2.03;;;29.60;30.10;;;;;;5114324;27;20161;-54
2021/09/04 12:23:24;;;;;;;9.82;2.30;;;29.50;30.90;;;;;;5113146;27;20128;-56
2021/09/04 12:25:53;;;;;;;7.57;2.20;;;29.60;31.20;;;;;;5115606;27;20080;-52
2021/09/04 12:28:29;;;;;;;9.80;2.28;;;29.50;31.90;;;;;;5115190;27;20162;-52
2021/09/04 12:30:58;;;;;;;8.68;2.33;;;29.50;32.60;;;;;;5111824;27;20076;-54
2021/09/04 12:33:25;;;;;;;8.32;1.92;;;29.40;31.60;;;;;;5111938;27;20570;-52
2021/09/04 12:36:03;;;;;;;9.43;2.10;;;29.40;31.80;;;;;;5114079;27;20552;-51
2021/09/04 12:38:33;;;;;;;8.35;2.22;;;29.40;32.60;;;;;;5119556;27;20072;-56
2021/09/04 12:41:19;;;;;;;10.23;2.30;;;29.40;31.90;;;;;;5113936;27;20079;-54
2021/09/04 12:43:54;;;;;;;9.45;2.40;;;29.30;31.30;;;;;;5118127;27;20614;-55
2021/09/04 12:46:45;;;;;;;9.63;2.05;;;29.30;32.20;;;;;;5117329;27;20080;-52